Airfield :
LOGIN :

Register | Disclaimer

   EN    FR    IT 

 










Legend :    VFR   Marginal VFR   IFR   Intensive IFR   Very Intensive IFR
Visi :
Ceiling :
>= 8 km
>= 3000ft
5 to 8 km
1000 to 3000 ft
1500m to 5 km
500 to 1000 ft
800 to 1500m
200 to 500 ft
< 800m
< 200 ft
Symbols :   Thunderstorms  Fog  Heavy snow  Heavy precipitations  Wind > 20 kt
SIGMETs :     Misc.  Thunderstorms  Icing  Turbulence  Mountain Waves  Volcanic Ashes






- Airport Elevation : 257 ft
- IATA code : MAN


EGCC - Manchester

CURRENT METAR :
  • 251020Z AUTO 30004KT 280V340 9999 BKN004 BKN009 OVC021 12/12 Q1017 RERA REDZ TEMPO 4000 RADZ

EXPIRED METARs :
  • 250950Z AUTO 27004KT 240V300 4500 -DZ SCT006 OVC009 12/11 Q1016 TEMPO RADZ
  • 250920Z AUTO VRB03KT 8000 BKN006 OVC015 12/11 Q1016 REDZ TEMPO 4000 RADZ
  • 250850Z AUTO VRB03KT 4700 BR BKN005 BKN009 OVC013 12/11 Q1017 RERA REDZ TEMPO RADZ
  • 250820Z AUTO VRB02KT 5000 -DZ OVC008 12/11 Q1017 TEMPO RADZ BKN012
  • 250750Z AUTO VRB03KT 9999 SCT009 OVC012 12/11 Q1017

TAF AMD TAF EGCC
Valid from the 25 at 08:00 until the 26 at 12:00 UTC


250836Z 2508/2612 28009KT 9999 SCT005 BKN020
TEMPO 2508/2512 7000 RA BKN008
PROB30
TEMPO 2508/2512 4000 RADZ BKN004
BECMG 2509/2512 02010KT
TEMPO 2512/2520 7000 SHRA
PROB30
TEMPO 2512/2518 4000 +SHRA BKN014
BECMG 2600/2603 08003KT
ATIS : +44 161 499 2324



MET'MAP, your aeronautical weather chart ! - Copyright ORBIFLY December 2007 - Disclaimer

ORBIFLY MET'MAP TEAM :

Programming & Development : Alexandra Zaïnal
Concept & original design : Baudouin d'Aumeries
Assistance for programming : Marc-Olivier Méhu
Technical & hardware support : Manuel Goepfert

Contact : metmap@orbifly.com




SOURCES & CREDITS :

   NOAA